createdAt,value
2023-01-29T00:01:30.451Z,99.09
2023-01-29T00:03:57.399Z,99.21
2023-01-29T00:06:23.925Z,99.13
2023-01-29T00:08:50.656Z,99.13
2023-01-29T00:11:17.312Z,99.17
2023-01-29T00:13:43.817Z,99.14
2023-01-29T00:16:10.756Z,99.24
2023-01-29T00:18:41.288Z,99.26
2023-01-29T00:21:16.493Z,99.60
2023-01-29T00:23:43.155Z,100.00
2023-01-29T00:26:10.786Z,99.77
2023-01-29T00:28:41.063Z,99.58
2023-01-29T00:31:12.746Z,99.13
2023-01-29T00:33:40.028Z,99.51
2023-01-29T00:36:10.591Z,99.00
2023-01-29T00:38:38.165Z,99.49
2023-01-29T00:41:31.994Z,99.05
2023-01-29T00:44:17.085Z,99.51
2023-01-29T00:46:43.950Z,99.51
2023-01-29T00:49:11.044Z,99.84
2023-01-29T00:51:38.988Z,100.00
2023-01-29T00:54:06.716Z,100.00
2023-01-29T00:56:36.236Z,100.00
2023-01-29T00:59:04.310Z,100.00
2023-01-29T01:01:49.976Z,99.90
2023-01-29T01:04:16.413Z,99.81
2023-01-29T01:06:43.451Z,99.88
2023-01-29T01:09:29.986Z,99.72
2023-01-29T01:11:56.447Z,100.00
2023-01-29T01:14:22.876Z,99.71
2023-01-29T01:16:49.454Z,99.93
2023-01-29T01:19:16.389Z,99.87
2023-01-29T01:21:48.166Z,99.91
2023-01-29T01:24:15.147Z,100.00
2023-01-29T01:26:41.640Z,100.00
2023-01-29T01:29:08.549Z,100.00
2023-01-29T01:31:35.017Z,100.00
2023-01-29T01:34:01.953Z,100.00
2023-01-29T01:36:28.323Z,99.80
2023-01-29T01:38:54.911Z,99.73
2023-01-29T01:41:23.165Z,98.99
2023-01-29T01:44:04.418Z,99.33
2023-01-29T01:46:33.850Z,99.48
2023-01-29T01:49:13.154Z,99.74
2023-01-29T01:51:46.657Z,99.30
2023-01-29T01:54:20.805Z,99.40
2023-01-29T01:56:55.332Z,98.79
2023-01-29T01:59:23.852Z,99.55
2023-01-29T02:01:54.076Z,99.39
2023-01-29T02:04:42.493Z,99.47
2023-01-29T02:07:32.684Z,99.74
2023-01-29T02:10:08.785Z,100.00
2023-01-29T02:12:36.884Z,100.00
2023-01-29T02:15:04.129Z,100.00
2023-01-29T02:17:31.969Z,100.00
2023-01-29T02:20:11.819Z,100.00
2023-01-29T02:22:41.198Z,100.00
2023-01-29T02:25:36.138Z,100.00
2023-01-29T02:28:24.426Z,100.00
2023-01-29T02:31:12.715Z,100.00
2023-01-29T02:34:06.224Z,100.00
2023-01-29T02:36:38.647Z,100.00
2023-01-29T02:39:23.228Z,99.93
2023-01-29T02:42:09.122Z,98.87
2023-01-29T02:44:48.615Z,98.91
2023-01-29T02:47:35.387Z,99.00
2023-01-29T02:50:17.980Z,99.03
2023-01-29T02:52:59.133Z,99.14
2023-01-29T02:55:44.981Z,98.62
2023-01-29T02:58:34.329Z,98.49
2023-01-29T03:01:08.973Z,97.97
2023-01-29T03:03:44.491Z,97.83
2023-01-29T03:06:30.369Z,97.60
2023-01-29T03:09:01.705Z,97.57
2023-01-29T03:11:36.050Z,97.70
2023-01-29T03:14:10.397Z,97.56
2023-01-29T03:16:51.308Z,98.28
2023-01-29T03:19:37.538Z,98.43
2023-01-29T03:22:13.620Z,98.10
2023-01-29T03:25:05.265Z,97.80
2023-01-29T03:27:58.155Z,98.19
2023-01-29T03:30:47.973Z,98.35
2023-01-29T03:33:48.671Z,98.46
2023-01-29T03:36:55.771Z,98.81
2023-01-29T03:39:27.972Z,98.95
2023-01-29T03:42:01.118Z,98.84
2023-01-29T03:44:53.696Z,99.57
2023-01-29T03:47:40.451Z,99.28
2023-01-29T03:50:32.516Z,99.54
2023-01-29T03:53:03.742Z,100.00
2023-01-29T03:55:41.814Z,100.00
2023-01-29T03:58:20.837Z,100.00
2023-01-29T04:01:19.755Z,100.00
2023-01-29T04:03:52.000Z,100.00
2023-01-29T04:06:29.747Z,100.00
2023-01-29T04:09:16.233Z,100.00
2023-01-29T04:11:51.170Z,100.00
2023-01-29T04:14:19.024Z,100.00
2023-01-29T04:16:54.891Z,100.00
2023-01-29T04:19:30.605Z,100.00
2023-01-29T04:22:26.152Z,100.00
2023-01-29T04:24:52.830Z,100.00
2023-01-29T04:27:29.784Z,100.00
2023-01-29T04:30:14.480Z,100.00
2023-01-29T04:32:53.521Z,100.00
2023-01-29T04:35:31.829Z,100.00
2023-01-29T04:38:28.124Z,100.00
2023-01-29T04:41:00.839Z,100.00
2023-01-29T04:43:54.978Z,100.00
2023-01-29T04:46:26.790Z,100.00
2023-01-29T04:49:02.306Z,99.83
2023-01-29T04:51:37.431Z,99.88
2023-01-29T04:54:25.534Z,99.74
2023-01-29T04:57:01.264Z,99.38
2023-01-29T04:59:36.164Z,99.48
2023-01-29T05:02:03.928Z,99.15
2023-01-29T05:04:34.148Z,99.52
2023-01-29T05:07:08.800Z,100.00
2023-01-29T05:09:38.072Z,99.89
2023-01-29T05:12:08.983Z,99.46
2023-01-29T05:14:37.017Z,99.63
2023-01-29T05:17:09.383Z,98.93
2023-01-29T05:19:35.900Z,99.02
2023-01-29T05:22:05.468Z,98.79
2023-01-29T05:24:31.980Z,98.90
2023-01-29T05:27:17.276Z,98.72
2023-01-29T05:29:46.502Z,98.77
2023-01-29T05:32:13.508Z,98.03
2023-01-29T05:34:39.958Z,97.88
2023-01-29T05:37:06.525Z,97.95
2023-01-29T05:39:33.155Z,98.43
2023-01-29T05:41:59.549Z,98.09
2023-01-29T05:44:25.957Z,98.33
2023-01-29T05:46:52.405Z,98.19
2023-01-29T05:49:20.414Z,98.00
2023-01-29T05:51:46.850Z,98.52
2023-01-29T05:54:13.648Z,97.87
2023-01-29T05:56:40.228Z,98.68
2023-01-29T05:59:07.300Z,98.65
2023-01-29T06:01:33.700Z,98.80
2023-01-29T06:04:00.141Z,98.75
2023-01-29T06:06:26.583Z,98.94
2023-01-29T06:08:52.985Z,99.21
2023-01-29T06:11:20.471Z,98.72
2023-01-29T06:13:47.790Z,98.26
2023-01-29T06:16:14.557Z,98.91
2023-01-29T06:18:42.154Z,98.86
2023-01-29T06:21:12.453Z,98.50
2023-01-29T06:23:39.135Z,98.96
2023-01-29T06:26:08.542Z,98.85
2023-01-29T06:28:34.959Z,98.90
2023-01-29T06:31:23.777Z,98.46
2023-01-29T06:33:50.569Z,98.44
2023-01-29T06:36:17.053Z,98.33
2023-01-29T06:38:43.415Z,98.29
2023-01-29T06:41:12.212Z,98.15
2023-01-29T06:43:39.222Z,97.94
2023-01-29T06:46:08.053Z,97.74
2023-01-29T06:48:34.852Z,97.55
2023-01-29T06:51:03.173Z,98.24
2023-01-29T06:53:29.613Z,98.07
2023-01-29T06:55:56.200Z,97.99
2023-01-29T06:58:22.733Z,97.90
2023-01-29T07:00:49.416Z,98.54
2023-01-29T07:03:15.868Z,98.40
2023-01-29T07:05:42.694Z,97.71
2023-01-29T07:08:09.626Z,97.61
2023-01-29T07:10:36.377Z,97.51
2023-01-29T07:13:02.790Z,97.64
2023-01-29T07:15:29.173Z,97.73
2023-01-29T07:18:05.202Z,96.96
2023-01-29T07:20:31.701Z,96.58
2023-01-29T07:22:58.590Z,97.51
2023-01-29T07:25:25.900Z,97.61
2023-01-29T07:27:52.276Z,98.14
2023-01-29T07:30:19.206Z,97.88
2023-01-29T07:32:45.785Z,97.89
2023-01-29T07:35:12.167Z,97.61
2023-01-29T07:37:38.615Z,98.02
2023-01-29T07:40:10.371Z,98.44
2023-01-29T07:42:39.666Z,97.90
2023-01-29T07:45:06.814Z,97.65
2023-01-29T07:47:33.298Z,97.57
2023-01-29T07:49:59.670Z,97.81
2023-01-29T07:52:26.163Z,98.01
2023-01-29T07:54:52.634Z,97.95
2023-01-29T07:57:19.022Z,97.85
2023-01-29T07:59:45.387Z,98.13
2023-01-29T08:02:12.477Z,97.90
2023-01-29T08:04:38.893Z,98.09
2023-01-29T08:07:05.433Z,97.51
2023-01-29T08:09:32.436Z,98.05
2023-01-29T08:11:58.793Z,97.61
2023-01-29T08:14:25.226Z,97.41
2023-01-29T08:16:51.639Z,97.28
2023-01-29T08:19:18.043Z,96.98
2023-01-29T08:21:44.464Z,97.09
2023-01-29T08:24:10.888Z,96.69
2023-01-29T08:26:37.557Z,96.89
2023-01-29T08:29:04.056Z,96.24
2023-01-29T08:31:30.482Z,96.34
2023-01-29T08:33:56.945Z,96.71
2023-01-29T08:36:23.327Z,96.82
2023-01-29T08:38:50.044Z,97.07
2023-01-29T08:41:16.445Z,97.11
2023-01-29T08:43:42.855Z,97.10
2023-01-29T08:46:09.544Z,96.72
2023-01-29T08:48:36.131Z,96.69
2023-01-29T08:51:04.255Z,96.60
2023-01-29T08:53:31.845Z,95.53
2023-01-29T08:55:58.250Z,95.18
2023-01-29T08:58:24.626Z,95.19
2023-01-29T09:00:51.033Z,95.21
2023-01-29T09:03:17.505Z,95.45
2023-01-29T09:05:43.945Z,95.31
2023-01-29T09:08:10.478Z,95.74
2023-01-29T09:10:37.092Z,96.07
2023-01-29T09:13:04.340Z,95.64
2023-01-29T09:15:30.882Z,95.62
2023-01-29T09:17:57.404Z,96.14
2023-01-29T09:20:23.912Z,95.48
2023-01-29T09:22:53.409Z,95.71
2023-01-29T09:25:20.360Z,95.64
2023-01-29T09:27:46.809Z,95.43
2023-01-29T09:30:13.718Z,95.92
2023-01-29T09:32:55.501Z,95.71
2023-01-29T09:35:23.285Z,95.53
2023-01-29T09:37:50.587Z,96.29
2023-01-29T09:40:50.399Z,96.04
2023-01-29T09:43:20.323Z,96.07
2023-01-29T09:46:04.631Z,95.77
2023-01-29T09:48:34.453Z,95.82
2023-01-29T09:51:05.841Z,96.04
2023-01-29T09:53:46.188Z,95.42
2023-01-29T09:56:19.463Z,95.04
2023-01-29T09:58:45.979Z,95.53
2023-01-29T10:01:20.596Z,95.74
2023-01-29T10:04:05.661Z,95.37
2023-01-29T10:07:01.662Z,95.22
2023-01-29T10:09:53.088Z,95.33
2023-01-29T10:12:19.521Z,95.65
2023-01-29T10:15:05.357Z,95.26
2023-01-29T10:17:50.602Z,95.31
2023-01-29T10:20:35.081Z,95.13
2023-01-29T10:23:20.233Z,95.63
2023-01-29T10:25:48.139Z,95.35
2023-01-29T10:28:27.157Z,95.48
2023-01-29T10:31:05.604Z,94.89
2023-01-29T10:34:01.629Z,95.32
2023-01-29T10:36:36.253Z,95.00
2023-01-29T10:39:02.818Z,94.93
2023-01-29T10:41:47.840Z,94.24
2023-01-29T10:44:14.182Z,94.09
2023-01-29T10:46:58.179Z,94.03
2023-01-29T10:50:01.728Z,94.28
2023-01-29T10:52:53.538Z,94.46
2023-01-29T10:55:31.219Z,94.31
2023-01-29T10:58:46.012Z,94.33
2023-01-29T11:01:13.513Z,93.88
2023-01-29T11:03:40.021Z,94.06
2023-01-29T11:06:17.179Z,93.92
2023-01-29T11:08:55.620Z,93.30
2023-01-29T11:11:33.265Z,93.37
2023-01-29T11:14:07.025Z,93.27
2023-01-29T11:16:45.504Z,92.76
2023-01-29T11:19:12.773Z,93.17
2023-01-29T11:22:00.923Z,92.72
2023-01-29T11:24:28.096Z,92.89
2023-01-29T11:26:57.474Z,92.86
2023-01-29T11:29:27.318Z,93.48
2023-01-29T11:31:53.905Z,93.51
2023-01-29T11:34:27.731Z,93.21
2023-01-29T11:37:02.447Z,92.61
2023-01-29T11:39:31.071Z,93.30
2023-01-29T11:42:05.197Z,93.55
2023-01-29T11:44:34.635Z,92.94
2023-01-29T11:47:16.318Z,92.98
2023-01-29T11:49:47.951Z,93.07
2023-01-29T11:52:17.207Z,93.27
2023-01-29T11:54:57.757Z,93.14
2023-01-29T11:57:40.655Z,93.21
2023-01-29T12:00:27.001Z,92.62
2023-01-29T12:03:06.865Z,92.83
2023-01-29T12:05:33.777Z,92.47
2023-01-29T12:08:02.182Z,92.50
2023-01-29T12:10:37.548Z,93.12
2023-01-29T12:13:10.940Z,92.77
2023-01-29T12:15:41.451Z,92.63
2023-01-29T12:18:35.210Z,92.45
2023-01-29T12:21:04.767Z,92.32
2023-01-29T12:23:36.501Z,92.22
2023-01-29T12:26:11.041Z,91.90
2023-01-29T12:28:59.287Z,92.21
2023-01-29T12:31:39.150Z,91.56
2023-01-29T12:34:18.253Z,91.63
2023-01-29T12:37:06.066Z,91.34
2023-01-29T12:39:32.500Z,91.52
2023-01-29T12:42:11.015Z,91.23
2023-01-29T12:45:04.934Z,91.00
2023-01-29T12:47:35.646Z,90.89
2023-01-29T12:50:07.984Z,90.72
2023-01-29T12:52:45.186Z,91.05
2023-01-29T12:55:25.071Z,90.88
2023-01-29T12:58:04.746Z,90.23
2023-01-29T13:00:38.198Z,90.26
2023-01-29T13:03:13.769Z,89.71
2023-01-29T13:05:50.567Z,89.63
2023-01-29T13:08:22.125Z,89.42
2023-01-29T13:10:51.205Z,89.48
2023-01-29T13:13:36.165Z,89.93
2023-01-29T13:16:07.268Z,89.72
2023-01-29T13:18:43.780Z,89.47
2023-01-29T13:21:20.976Z,89.34
2023-01-29T13:23:51.086Z,88.96
2023-01-29T13:26:19.731Z,89.37
2023-01-29T13:28:46.762Z,89.66
2023-01-29T13:31:32.000Z,89.89
2023-01-29T13:34:13.076Z,89.57
2023-01-29T13:36:48.404Z,89.42
2023-01-29T13:39:44.443Z,89.76
2023-01-29T13:42:18.584Z,89.65
2023-01-29T13:45:22.207Z,89.43
2023-01-29T13:47:51.048Z,88.70
2023-01-29T13:50:38.867Z,88.34
2023-01-29T13:53:08.235Z,88.00
2023-01-29T13:55:35.749Z,87.99
2023-01-29T13:58:26.138Z,87.87
2023-01-29T14:00:52.970Z,87.79
2023-01-29T14:03:25.575Z,87.27
2023-01-29T14:05:54.651Z,87.03
2023-01-29T14:08:39.543Z,87.39
2023-01-29T14:11:17.965Z,87.65
2023-01-29T14:13:49.736Z,87.60
2023-01-29T14:16:16.201Z,86.67
2023-01-29T14:18:50.654Z,86.61
2023-01-29T14:21:17.188Z,86.60
2023-01-29T14:23:52.579Z,86.35
2023-01-29T14:26:24.020Z,86.13
2023-01-29T14:29:01.287Z,86.33
2023-01-29T14:32:08.439Z,86.77
2023-01-29T14:35:03.119Z,86.81
2023-01-29T14:37:38.775Z,86.64
2023-01-29T14:40:11.181Z,85.99
2023-01-29T14:42:43.733Z,85.82
2023-01-29T14:45:24.168Z,85.98
2023-01-29T14:47:50.550Z,86.46
2023-01-29T14:50:29.080Z,86.26
2023-01-29T14:53:13.704Z,85.68
2023-01-29T14:55:48.305Z,85.32
2023-01-29T14:58:19.480Z,84.42
2023-01-29T15:00:51.654Z,84.96
2023-01-29T15:03:41.841Z,84.75
2023-01-29T15:06:15.340Z,84.46
2023-01-29T15:08:49.562Z,85.01
2023-01-29T15:11:48.920Z,84.71
2023-01-29T15:14:26.015Z,84.46
2023-01-29T15:17:00.563Z,85.48
2023-01-29T15:19:36.404Z,85.81
2023-01-29T15:22:14.184Z,85.15
2023-01-29T15:24:42.194Z,84.89
2023-01-29T15:27:20.155Z,84.84
2023-01-29T15:30:02.173Z,85.39
2023-01-29T15:32:39.920Z,84.73
2023-01-29T15:35:17.286Z,84.77
2023-01-29T15:37:43.823Z,84.45
2023-01-29T15:40:16.966Z,84.53
2023-01-29T15:42:48.169Z,84.84
2023-01-29T15:45:32.068Z,84.28
2023-01-29T15:48:03.749Z,84.27
2023-01-29T15:50:31.317Z,84.77
2023-01-29T15:53:03.588Z,84.75
2023-01-29T15:55:31.555Z,84.49
2023-01-29T15:57:59.744Z,85.04
2023-01-29T16:00:29.489Z,84.86
2023-01-29T16:02:57.418Z,84.51
2023-01-29T16:05:27.861Z,85.22
2023-01-29T16:07:55.738Z,85.54
2023-01-29T16:10:28.742Z,85.57
2023-01-29T16:12:55.783Z,85.08
2023-01-29T16:15:35.004Z,85.22
2023-01-29T16:18:04.928Z,85.95
2023-01-29T16:20:45.569Z,85.63
2023-01-29T16:23:24.666Z,85.89
2023-01-29T16:25:51.678Z,86.01
2023-01-29T16:28:19.172Z,85.88
2023-01-29T16:30:45.717Z,85.59
2023-01-29T16:33:16.905Z,85.53
2023-01-29T16:35:50.959Z,85.89
2023-01-29T16:38:27.217Z,85.92
2023-01-29T16:41:08.197Z,85.74
2023-01-29T16:43:42.100Z,85.88
2023-01-29T16:46:20.680Z,86.28
2023-01-29T16:48:47.680Z,86.45
2023-01-29T16:51:22.028Z,85.98
2023-01-29T16:54:00.456Z,85.82
2023-01-29T16:56:30.378Z,85.98
2023-01-29T16:58:57.476Z,85.74
2023-01-29T17:01:28.639Z,85.94
2023-01-29T17:04:13.668Z,86.12
2023-01-29T17:06:47.132Z,85.92
2023-01-29T17:09:39.776Z,86.47
2023-01-29T17:12:08.840Z,86.44
2023-01-29T17:14:41.812Z,86.37
2023-01-29T17:17:16.044Z,86.25
2023-01-29T17:19:42.428Z,86.06
2023-01-29T17:22:14.546Z,86.02
2023-01-29T17:24:43.940Z,86.16
2023-01-29T17:27:21.964Z,86.07
2023-01-29T17:29:48.785Z,85.67
2023-01-29T17:32:18.775Z,86.10
2023-01-29T17:34:46.635Z,85.98
2023-01-29T17:37:15.616Z,85.64
2023-01-29T17:39:43.501Z,85.59
2023-01-29T17:42:14.937Z,85.99
2023-01-29T17:44:42.852Z,85.83
2023-01-29T17:47:13.982Z,86.07
2023-01-29T17:49:40.939Z,85.99
2023-01-29T17:52:07.819Z,85.92
2023-01-29T17:54:34.838Z,85.88
2023-01-29T17:57:01.236Z,85.77
2023-01-29T17:59:33.847Z,85.46
2023-01-29T18:02:00.521Z,85.26
2023-01-29T18:04:27.259Z,84.68
2023-01-29T18:06:55.584Z,85.00
2023-01-29T18:09:22.388Z,84.84
2023-01-29T18:11:50.589Z,84.76
2023-01-29T18:14:17.376Z,85.05
2023-01-29T18:16:44.689Z,84.77
2023-01-29T18:19:30.895Z,85.06
2023-01-29T18:21:57.694Z,85.28
2023-01-29T18:24:26.340Z,84.69
2023-01-29T18:26:52.720Z,84.71
2023-01-29T18:29:19.110Z,84.49
2023-01-29T18:31:49.031Z,84.65
2023-01-29T18:34:15.911Z,84.85
2023-01-29T18:36:46.863Z,85.21
2023-01-29T18:39:16.261Z,84.77
2023-01-29T18:41:42.701Z,85.26
2023-01-29T18:44:10.712Z,85.18
2023-01-29T18:46:37.123Z,84.73
2023-01-29T18:49:05.014Z,85.32
2023-01-29T18:51:31.748Z,85.51
2023-01-29T18:53:58.179Z,85.38
2023-01-29T18:56:24.728Z,85.39
2023-01-29T18:58:55.822Z,85.56
2023-01-29T19:01:23.617Z,85.69
2023-01-29T19:03:50.199Z,85.62
2023-01-29T19:06:16.617Z,85.25
2023-01-29T19:08:43.856Z,84.75
2023-01-29T19:11:12.340Z,84.30
2023-01-29T19:13:39.046Z,84.91
2023-01-29T19:16:07.673Z,85.07
2023-01-29T19:18:34.046Z,85.41
2023-01-29T19:21:01.237Z,85.42
2023-01-29T19:23:27.624Z,85.04
2023-01-29T19:25:56.980Z,85.15
2023-01-29T19:28:23.375Z,85.22
2023-01-29T19:30:49.882Z,85.45
2023-01-29T19:33:16.304Z,85.45
2023-01-29T19:35:45.513Z,85.48
2023-01-29T19:38:12.055Z,85.78
2023-01-29T19:40:38.815Z,85.15
2023-01-29T19:43:05.773Z,85.64
2023-01-29T19:45:49.271Z,85.41
2023-01-29T19:48:21.538Z,85.90
2023-01-29T19:50:52.739Z,85.86
2023-01-29T19:53:19.490Z,85.92
2023-01-29T19:55:46.040Z,85.89
2023-01-29T19:58:12.581Z,86.41
2023-01-29T20:00:39.029Z,86.91
2023-01-29T20:03:05.481Z,88.25
2023-01-29T20:05:35.516Z,89.43
2023-01-29T20:08:01.896Z,90.20
2023-01-29T20:10:28.293Z,90.76
2023-01-29T20:12:54.650Z,90.54
2023-01-29T20:15:22.191Z,90.84
2023-01-29T20:17:48.549Z,91.71
2023-01-29T20:20:16.697Z,92.17
2023-01-29T20:22:43.608Z,92.61
2023-01-29T20:25:13.400Z,92.43
2023-01-29T20:27:39.946Z,92.07
2023-01-29T20:30:08.065Z,92.18
2023-01-29T20:32:35.190Z,92.20
2023-01-29T20:35:01.890Z,92.74
2023-01-29T20:37:28.382Z,92.93
2023-01-29T20:39:54.745Z,92.74
2023-01-29T20:42:21.134Z,92.59
2023-01-29T20:44:47.527Z,92.73
2023-01-29T20:47:13.896Z,93.03
2023-01-29T20:49:40.258Z,93.23
2023-01-29T20:52:07.649Z,93.23
2023-01-29T20:54:34.371Z,93.18
2023-01-29T20:57:01.193Z,92.99
2023-01-29T20:59:29.041Z,93.50
2023-01-29T21:01:55.618Z,93.65
2023-01-29T21:04:22.047Z,93.47
2023-01-29T21:06:48.667Z,93.58
2023-01-29T21:09:15.073Z,93.88
2023-01-29T21:11:41.429Z,93.58
2023-01-29T21:14:07.893Z,93.52
2023-01-29T21:16:34.467Z,93.38
2023-01-29T21:19:01.197Z,93.32
2023-01-29T21:21:27.642Z,93.48
2023-01-29T21:23:54.307Z,93.41
2023-01-29T21:26:21.014Z,93.95
2023-01-29T21:28:47.512Z,94.19
2023-01-29T21:31:16.077Z,93.81
2023-01-29T21:33:43.281Z,94.16
2023-01-29T21:36:10.773Z,93.96
2023-01-29T21:38:37.319Z,93.85
2023-01-29T21:41:06.908Z,94.26
2023-01-29T21:43:33.685Z,94.45
2023-01-29T21:46:04.776Z,95.06
2023-01-29T21:48:31.327Z,94.83
2023-01-29T21:50:57.914Z,94.99
2023-01-29T21:53:24.403Z,95.24
2023-01-29T21:55:50.852Z,95.42
2023-01-29T21:58:17.284Z,95.70
2023-01-29T22:00:48.602Z,95.75
2023-01-29T22:03:15.190Z,95.35
2023-01-29T22:05:41.628Z,95.42
2023-01-29T22:08:08.076Z,95.80
2023-01-29T22:10:36.363Z,95.82
2023-01-29T22:13:02.952Z,95.93
2023-01-29T22:15:29.330Z,96.13
2023-01-29T22:17:55.714Z,95.80
2023-01-29T22:20:29.552Z,96.18
2023-01-29T22:23:01.967Z,96.46
2023-01-29T22:25:28.431Z,96.81
2023-01-29T22:27:54.859Z,97.03
2023-01-29T22:30:23.137Z,97.39
2023-01-29T22:32:50.212Z,98.03
2023-01-29T22:35:16.873Z,99.01
2023-01-29T22:37:43.401Z,99.18
2023-01-29T22:40:10.381Z,99.46
2023-01-29T22:42:36.847Z,99.47
2023-01-29T22:45:03.477Z,99.95
2023-01-29T22:47:32.300Z,99.55
2023-01-29T22:49:58.652Z,99.87
2023-01-29T22:52:27.796Z,100.00
2023-01-29T22:54:54.272Z,100.00
2023-01-29T22:57:20.697Z,100.00
2023-01-29T22:59:47.155Z,100.00
2023-01-29T23:02:13.536Z,100.00
2023-01-29T23:04:39.959Z,100.00
2023-01-29T23:07:06.836Z,100.00
2023-01-29T23:09:33.213Z,100.00
2023-01-29T23:11:59.629Z,100.00
2023-01-29T23:14:26.406Z,100.00
2023-01-29T23:16:52.776Z,100.00
2023-01-29T23:19:19.214Z,100.00
2023-01-29T23:21:45.655Z,100.00
2023-01-29T23:24:12.951Z,100.00
2023-01-29T23:26:58.101Z,100.00
2023-01-29T23:29:24.559Z,100.00
2023-01-29T23:31:51.032Z,100.00
2023-01-29T23:34:17.496Z,100.00
2023-01-29T23:36:43.996Z,100.00
2023-01-29T23:39:10.892Z,100.00
2023-01-29T23:41:37.321Z,100.00
2023-01-29T23:44:04.341Z,100.00
2023-01-29T23:46:31.000Z,100.00
2023-01-29T23:48:57.530Z,100.00
2023-01-29T23:51:24.008Z,100.00
2023-01-29T23:53:50.703Z,100.00
2023-01-29T23:56:17.348Z,100.00
2023-01-29T23:58:44.738Z,100.00
